createdAt,value
2019-06-07T00:00:40.734Z,0.00
2019-06-07T00:01:40.067Z,0.00
2019-06-07T00:02:41.753Z,0.00
2019-06-07T00:03:41.335Z,0.00
2019-06-07T00:04:43.167Z,0.00
2019-06-07T00:04:51.713Z,0.00
2019-06-07T00:05:53.130Z,0.00
2019-06-07T00:06:53.657Z,0.00
2019-06-07T00:07:54.296Z,0.00
2019-06-07T00:08:55.129Z,0.00
2019-06-07T00:09:54.690Z,0.00
2019-06-07T00:10:56.441Z,0.00
2019-06-07T00:11:57.022Z,0.00
2019-06-07T00:12:57.997Z,0.00
2019-06-07T00:13:57.802Z,0.00
2019-06-07T00:14:59.576Z,0.00
2019-06-07T00:16:00.316Z,0.00
2019-06-07T00:17:00.911Z,0.00
2019-06-07T00:18:01.567Z,0.00
2019-06-07T00:19:02.200Z,0.00
2019-06-07T00:20:02.909Z,0.00
2019-06-07T00:21:03.425Z,0.00
2019-06-07T00:22:17.682Z,0.00
2019-06-07T00:23:03.627Z,0.00
2019-06-07T00:24:05.184Z,0.00
2019-06-07T00:25:05.920Z,0.00
2019-06-07T00:26:06.349Z,0.00
2019-06-07T00:27:08.300Z,0.00
2019-06-07T00:28:06.659Z,0.00
2019-06-07T00:29:09.253Z,0.00
2019-06-07T00:30:32.678Z,0.00
2019-06-07T00:31:08.991Z,0.00
2019-06-07T00:32:09.383Z,0.00
2019-06-07T00:33:10.893Z,0.00
2019-06-07T00:34:10.795Z,0.00
2019-06-07T00:35:11.941Z,0.00
2019-06-07T00:36:14.612Z,0.00
2019-06-07T00:37:12.678Z,0.00
2019-06-07T00:38:14.213Z,0.00
2019-06-07T00:39:14.492Z,0.00
2019-06-07T00:40:18.491Z,0.00
2019-06-07T00:41:15.115Z,0.00
2019-06-07T00:42:18.600Z,0.00
2019-06-07T00:43:19.162Z,0.00
2019-06-07T00:44:19.601Z,0.00
2019-06-07T00:45:21.086Z,0.00
2019-06-07T00:46:18.834Z,0.00
2019-06-07T00:47:21.560Z,0.00
2019-06-07T00:48:28.761Z,0.00
2019-06-07T00:49:36.198Z,0.00
2019-06-07T00:50:23.460Z,0.00
2019-06-07T00:51:21.898Z,0.00
2019-06-07T00:53:11.477Z,0.00
2019-06-07T00:53:31.090Z,0.00
2019-06-07T00:54:24.065Z,0.00
2019-06-07T00:55:27.032Z,0.00
2019-06-07T00:56:23.529Z,0.00
2019-06-07T00:57:24.447Z,0.00
2019-06-07T00:58:27.478Z,0.00
2019-06-07T00:59:29.316Z,0.00
2019-06-07T01:00:25.704Z,0.00
2019-06-07T01:01:25.822Z,0.00
2019-06-07T01:02:31.226Z,0.00
2019-06-07T01:03:26.850Z,0.00
2019-06-07T01:04:27.933Z,0.00
2019-06-07T01:05:31.395Z,0.00
2019-06-07T01:06:28.206Z,0.00
2019-06-07T01:07:29.665Z,0.00
2019-06-07T01:08:30.350Z,0.00
2019-06-07T01:09:29.638Z,0.00
2019-06-07T01:10:52.458Z,0.00
2019-06-07T01:11:31.085Z,0.00
2019-06-07T01:12:32.976Z,0.00
2019-06-07T01:13:33.452Z,0.00
2019-06-07T01:14:34.093Z,0.00
2019-06-07T01:15:34.763Z,0.00
2019-06-07T01:16:55.300Z,0.00
2019-06-07T01:17:59.051Z,0.00
2019-06-07T01:18:41.031Z,0.00
2019-06-07T01:19:36.560Z,0.00
2019-06-07T01:20:37.950Z,0.00
2019-06-07T01:21:38.799Z,0.00
2019-06-07T01:21:48.338Z,0.00
2019-06-07T01:22:49.776Z,0.00
2019-06-07T01:24:11.866Z,0.00
2019-06-07T01:24:49.864Z,0.00
2019-06-07T01:25:51.373Z,0.00
2019-06-07T01:26:50.917Z,0.00
2019-06-07T01:27:51.328Z,0.00
2019-06-07T01:28:53.139Z,0.00
2019-06-07T01:29:53.620Z,0.00
2019-06-07T01:30:54.143Z,0.00
2019-06-07T01:31:54.839Z,0.00
2019-06-07T01:32:55.344Z,0.00
2019-06-07T01:33:54.818Z,0.00
2019-06-07T01:34:56.531Z,0.00
2019-06-07T01:35:56.998Z,0.00
2019-06-07T01:36:57.510Z,0.00
2019-06-07T01:37:58.158Z,0.00
2019-06-07T01:38:58.657Z,0.00
2019-06-07T01:39:59.335Z,0.00
2019-06-07T01:40:59.801Z,0.00
2019-06-07T01:42:00.347Z,0.00
2019-06-07T01:43:00.863Z,0.00
2019-06-07T01:44:01.335Z,0.00
2019-06-07T01:45:01.788Z,0.00
2019-06-07T01:46:01.873Z,0.00
2019-06-07T01:47:02.548Z,0.00
2019-06-07T01:48:03.462Z,0.00
2019-06-07T01:49:04.069Z,0.00
2019-06-07T01:50:04.617Z,0.00
2019-06-07T01:51:05.437Z,0.00
2019-06-07T01:52:04.830Z,0.00
2019-06-07T01:53:06.741Z,0.00
2019-06-07T01:54:49.437Z,0.00
2019-06-07T01:55:06.720Z,0.00
2019-06-07T01:56:08.301Z,0.00
2019-06-07T01:57:30.429Z,0.00
2019-06-07T01:58:08.430Z,0.00
2019-06-07T01:59:10.170Z,0.00
2019-06-07T02:00:11.087Z,0.00
2019-06-07T02:01:11.640Z,0.00
2019-06-07T02:02:12.245Z,0.00
2019-06-07T02:03:12.966Z,0.00
2019-06-07T02:04:13.829Z,0.00
2019-06-07T02:05:14.613Z,0.00
2019-06-07T02:06:14.696Z,0.00
2019-06-07T02:07:15.334Z,0.00
2019-06-07T02:08:14.802Z,0.05
2019-06-07T02:09:16.457Z,0.05
2019-06-07T02:10:19.443Z,0.05
2019-06-07T02:11:18.083Z,0.05
2019-06-07T02:12:28.118Z,0.05
2019-06-07T02:13:18.772Z,0.05
2019-06-07T02:14:19.606Z,0.05
2019-06-07T02:15:21.711Z,0.05
2019-06-07T02:16:19.856Z,0.05
2019-06-07T02:17:24.004Z,0.05
2019-06-07T02:18:22.964Z,0.05
2019-06-07T02:19:22.017Z,0.09
2019-06-07T02:20:25.774Z,0.09
2019-06-07T02:21:25.732Z,0.09
2019-06-07T02:21:34.379Z,0.14
2019-06-07T02:22:32.839Z,0.14
2019-06-07T02:23:34.464Z,0.14
2019-06-07T02:24:36.213Z,0.18
2019-06-07T02:25:42.236Z,0.18
2019-06-07T02:26:35.107Z,0.22
2019-06-07T02:27:36.641Z,0.27
2019-06-07T02:28:45.309Z,0.27
2019-06-07T02:29:37.066Z,0.27
2019-06-07T02:30:47.268Z,0.36
2019-06-07T02:31:39.814Z,0.41
2019-06-07T02:32:38.173Z,0.50
2019-06-07T02:33:40.543Z,0.54
2019-06-07T02:34:39.969Z,0.63
2019-06-07T02:35:41.241Z,0.72
2019-06-07T02:36:41.737Z,0.81
2019-06-07T02:37:41.329Z,0.94
2019-06-07T02:38:42.562Z,1.08
2019-06-07T02:39:42.519Z,1.26
2019-06-07T02:40:42.065Z,1.39
2019-06-07T02:41:43.598Z,1.62
2019-06-07T02:42:43.879Z,1.80
2019-06-07T02:43:44.408Z,1.98
2019-06-07T02:44:44.895Z,2.25
2019-06-07T02:45:45.715Z,2.52
2019-06-07T02:46:49.456Z,2.92
2019-06-07T02:47:45.442Z,3.37
2019-06-07T02:48:47.014Z,3.83
2019-06-07T02:49:47.459Z,4.36
2019-06-07T02:50:47.842Z,5.04
2019-06-07T02:51:48.397Z,5.76
2019-06-07T02:52:49.205Z,6.61
2019-06-07T02:53:48.513Z,7.56
2019-06-07T02:54:49.093Z,8.73
2019-06-07T02:56:34.168Z,9.99
2019-06-07T02:56:57.803Z,11.52
2019-06-07T02:57:51.035Z,13.14
2019-06-07T02:58:52.605Z,14.94
2019-06-07T03:00:06.493Z,17.10
2019-06-07T03:01:06.736Z,19.44
2019-06-07T03:01:53.265Z,21.96
2019-06-07T03:02:54.752Z,24.66
2019-06-07T03:03:55.576Z,27.72
2019-06-07T03:04:57.084Z,31.14
2019-06-07T03:05:56.661Z,34.92
2019-06-07T03:06:57.378Z,38.88
2019-06-07T03:07:57.852Z,43.20
2019-06-07T03:08:58.321Z,48.24
2019-06-07T03:09:58.800Z,53.28
2019-06-07T03:10:58.363Z,59.04
2019-06-07T03:11:59.794Z,64.80
2019-06-07T03:13:00.514Z,71.64
2019-06-07T03:14:01.111Z,78.84
2019-06-07T03:15:01.718Z,86.76
2019-06-07T03:16:02.287Z,95.04
2019-06-07T03:17:03.113Z,104.40
2019-06-07T03:18:03.658Z,113.76
2019-06-07T03:19:04.152Z,123.84
2019-06-07T03:19:12.700Z,125.28
2019-06-07T03:20:14.092Z,136.08
2019-06-07T03:21:13.490Z,146.88
2019-06-07T03:22:15.135Z,159.12
2019-06-07T03:23:15.582Z,170.64
2019-06-07T03:24:16.131Z,183.60
2019-06-07T03:25:15.689Z,195.84
2019-06-07T03:26:17.241Z,210.24
2019-06-07T03:27:41.342Z,223.20
2019-06-07T03:28:17.294Z,239.04
2019-06-07T03:29:19.036Z,253.44
2019-06-07T03:30:46.221Z,272.16
2019-06-07T03:31:19.250Z,293.76
2019-06-07T03:32:20.818Z,306.72
2019-06-07T03:33:21.475Z,325.44
2019-06-07T03:34:21.993Z,349.92
2019-06-07T03:35:22.655Z,380.16
2019-06-07T03:36:25.799Z,408.96
2019-06-07T03:37:22.215Z,429.12
2019-06-07T03:38:23.947Z,446.40
2019-06-07T03:39:25.290Z,469.44
2019-06-07T03:40:23.869Z,504.00
2019-06-07T03:41:25.360Z,544.32
2019-06-07T03:42:26.650Z,578.88
2019-06-07T03:43:25.116Z,616.32
2019-06-07T03:44:28.629Z,653.76
2019-06-07T03:45:28.517Z,702.72
2019-06-07T03:46:27.298Z,771.84
2019-06-07T03:47:29.188Z,817.92
2019-06-07T03:48:28.866Z,864.00
2019-06-07T03:49:30.739Z,933.12
2019-06-07T03:50:31.950Z,1111.68
2019-06-07T03:51:30.647Z,1198.08
2019-06-07T03:52:30.209Z,1284.48
2019-06-07T03:53:31.143Z,1370.88
2019-06-07T03:54:32.077Z,1445.76
2019-06-07T03:55:37.743Z,1520.64
2019-06-07T03:56:33.764Z,1589.76
2019-06-07T03:58:27.506Z,1658.88
2019-06-07T03:58:45.678Z,1612.80
2019-06-07T03:59:37.425Z,1589.76
2019-06-07T04:00:36.750Z,1624.32
2019-06-07T04:01:37.675Z,1601.28
2019-06-07T04:02:38.602Z,1543.68
2019-06-07T04:03:43.576Z,1451.52
2019-06-07T04:04:38.505Z,1319.04
2019-06-07T04:05:41.222Z,1301.76
2019-06-07T04:06:41.535Z,1365.12
2019-06-07T04:07:43.719Z,1359.36
2019-06-07T04:08:41.950Z,1359.36
2019-06-07T04:09:42.657Z,1486.08
2019-06-07T04:10:53.390Z,1532.16
2019-06-07T04:11:40.959Z,1532.16
2019-06-07T04:12:44.016Z,1532.16
2019-06-07T04:13:43.122Z,1635.84
2019-06-07T04:14:42.920Z,1751.04
2019-06-07T04:15:42.699Z,1728.00
2019-06-07T04:16:44.801Z,1681.92
2019-06-07T04:18:00.950Z,1635.84
2019-06-07T04:18:44.520Z,1589.76
2019-06-07T04:19:46.190Z,1589.76
2019-06-07T04:20:46.838Z,1578.24
2019-06-07T04:21:47.343Z,1681.92
2019-06-07T04:22:47.861Z,1566.72
2019-06-07T04:23:48.740Z,1578.24
2019-06-07T04:24:49.485Z,1647.36
2019-06-07T04:25:50.047Z,1958.40
2019-06-07T04:26:50.689Z,1681.92
2019-06-07T04:27:51.592Z,1474.56
2019-06-07T04:29:31.507Z,1388.16
2019-06-07T04:30:06.666Z,1382.40
2019-06-07T04:30:52.613Z,1399.68
2019-06-07T04:31:54.362Z,1520.64
2019-06-07T04:32:54.879Z,1624.32
2019-06-07T04:33:55.363Z,1543.68
2019-06-07T04:34:55.973Z,1474.56
2019-06-07T04:35:55.389Z,1589.76
2019-06-07T04:36:59.619Z,1866.24
2019-06-07T04:37:56.653Z,2499.84
2019-06-07T04:38:58.230Z,3386.88
2019-06-07T04:39:06.767Z,3479.04
2019-06-07T04:40:08.182Z,4308.48
2019-06-07T04:41:08.650Z,4654.08
2019-06-07T04:42:09.286Z,4815.36
2019-06-07T04:43:09.866Z,4700.16
2019-06-07T04:44:10.354Z,5160.96
2019-06-07T04:45:32.587Z,5299.20
2019-06-07T04:46:10.803Z,5552.64
2019-06-07T04:47:12.481Z,5760.00
2019-06-07T04:48:13.041Z,5529.60
2019-06-07T04:49:13.758Z,5829.12
2019-06-07T04:50:14.373Z,5990.40
2019-06-07T04:51:15.414Z,6220.80
2019-06-07T04:52:14.911Z,6819.84
2019-06-07T04:53:16.669Z,6543.36
2019-06-07T04:54:17.252Z,6635.52
2019-06-07T04:55:17.745Z,6819.84
2019-06-07T04:56:18.268Z,6589.44
2019-06-07T04:57:19.050Z,6727.68
2019-06-07T04:58:19.522Z,7096.32
2019-06-07T05:00:01.141Z,6635.52
2019-06-07T05:00:48.483Z,7096.32
2019-06-07T05:01:27.471Z,7050.24
2019-06-07T05:02:20.990Z,6773.76
2019-06-07T05:03:22.545Z,7050.24
2019-06-07T05:04:23.057Z,7372.80
2019-06-07T05:05:23.856Z,7603.20
2019-06-07T05:06:24.025Z,8064.00
2019-06-07T05:07:24.479Z,8064.00
2019-06-07T05:08:28.485Z,8294.40
2019-06-07T05:09:25.004Z,8340.48
2019-06-07T05:10:26.738Z,8202.24
2019-06-07T05:11:27.256Z,8248.32
2019-06-07T05:12:27.729Z,8156.16
2019-06-07T05:13:28.004Z,8110.08
2019-06-07T05:14:31.167Z,8386.56
2019-06-07T05:15:29.587Z,8524.80
2019-06-07T05:16:30.493Z,8755.20
2019-06-07T05:17:31.279Z,8663.04
2019-06-07T05:18:30.269Z,8709.12
2019-06-07T05:19:35.186Z,8939.52
2019-06-07T05:20:33.630Z,9169.92
2019-06-07T05:21:58.342Z,9446.40
2019-06-07T05:22:34.934Z,9815.04
2019-06-07T05:24:35.591Z,9538.56
2019-06-07T05:25:35.695Z,9446.40
2019-06-07T05:26:38.523Z,9492.48
2019-06-07T05:27:37.914Z,9815.04
2019-06-07T05:28:37.852Z,11427.84
2019-06-07T05:29:38.365Z,11289.60
2019-06-07T05:31:02.005Z,12533.76
2019-06-07T05:31:39.753Z,12533.76
2019-06-07T05:32:43.759Z,12902.40
2019-06-07T05:33:40.593Z,12902.40
2019-06-07T05:34:42.430Z,12718.08
2019-06-07T05:35:43.179Z,12902.40
2019-06-07T05:36:44.328Z,13455.36
2019-06-07T05:37:45.485Z,13455.36
2019-06-07T05:38:44.719Z,13086.72
2019-06-07T05:39:45.538Z,12994.56
2019-06-07T05:40:47.919Z,12625.92
2019-06-07T05:41:44.447Z,12718.08
2019-06-07T05:42:46.607Z,12165.12
2019-06-07T05:43:51.492Z,11704.32
2019-06-07T05:44:45.817Z,12441.60
2019-06-07T05:45:47.059Z,13363.20
2019-06-07T05:46:47.055Z,14100.48
2019-06-07T05:47:50.680Z,14745.60
2019-06-07T05:48:46.578Z,16035.84
2019-06-07T05:49:48.095Z,15851.52
2019-06-07T05:50:56.587Z,15943.68
2019-06-07T05:51:48.208Z,16404.48
2019-06-07T05:52:49.807Z,16312.32
2019-06-07T05:52:58.377Z,15943.68
2019-06-07T05:54:00.169Z,16496.64
2019-06-07T05:55:00.649Z,15759.36
2019-06-07T05:56:01.117Z,17694.72
2019-06-07T05:57:01.619Z,17786.88
2019-06-07T05:58:02.074Z,17694.72
2019-06-07T05:59:02.557Z,17141.76
2019-06-07T06:00:03.425Z,16496.64
2019-06-07T06:01:41.589Z,15667.20
2019-06-07T06:02:21.453Z,16128.00
2019-06-07T06:03:05.978Z,15667.20
2019-06-07T06:04:04.605Z,15298.56
2019-06-07T06:05:06.082Z,14192.64
2019-06-07T06:06:06.510Z,14284.80
2019-06-07T06:07:07.218Z,13547.52
2019-06-07T06:08:07.808Z,18616.32
2019-06-07T06:09:13.689Z,17418.24
2019-06-07T06:10:07.926Z,16588.80
2019-06-07T06:11:09.749Z,17233.92
2019-06-07T06:12:10.317Z,17786.88
2019-06-07T06:13:11.103Z,18339.84
2019-06-07T06:14:11.526Z,19077.12
2019-06-07T06:15:12.158Z,19445.76
2019-06-07T06:16:12.628Z,20459.52
2019-06-07T06:17:13.133Z,20920.32
2019-06-07T06:18:13.572Z,17602.56
2019-06-07T06:19:14.354Z,13916.16
2019-06-07T06:20:15.136Z,20459.52
2019-06-07T06:21:19.116Z,21473.28
2019-06-07T06:22:15.168Z,19445.76
2019-06-07T06:23:17.115Z,19077.12
2019-06-07T06:24:17.598Z,20459.52
2019-06-07T06:25:34.447Z,19722.24
2019-06-07T06:26:18.266Z,20920.32
2019-06-07T06:28:02.511Z,20920.32
2019-06-07T06:28:19.255Z,21473.28
2019-06-07T06:29:20.745Z,22302.72
2019-06-07T06:30:21.315Z,21381.12
2019-06-07T06:31:22.030Z,23316.48
2019-06-07T06:33:33.645Z,24145.92
2019-06-07T06:34:23.260Z,24145.92
2019-06-07T06:35:25.124Z,21381.12
2019-06-07T06:36:25.727Z,22118.40
2019-06-07T06:37:26.507Z,23224.32
2019-06-07T06:38:27.276Z,24145.92
2019-06-07T06:39:27.903Z,24698.88
2019-06-07T06:40:28.619Z,23777.28
2019-06-07T06:41:29.114Z,24145.92
2019-06-07T06:42:29.606Z,27832.32
2019-06-07T06:43:29.887Z,30965.76
2019-06-07T06:44:30.414Z,32256.00
2019-06-07T06:44:41.812Z,34652.16
2019-06-07T06:45:40.136Z,35942.40
2019-06-07T06:46:44.822Z,29675.52
2019-06-07T06:47:40.807Z,27648.00
2019-06-07T06:48:45.489Z,25251.84
2019-06-07T06:49:43.375Z,25804.80
2019-06-07T06:50:44.413Z,23040.00
2019-06-07T06:51:47.016Z,21288.96
2019-06-07T06:52:45.466Z,26910.72
2019-06-07T06:53:44.376Z,28016.64
2019-06-07T06:54:48.780Z,23961.60
2019-06-07T06:55:48.423Z,23408.64
2019-06-07T06:56:46.998Z,24145.92
2019-06-07T06:57:46.478Z,26542.08
2019-06-07T06:59:26.940Z,27095.04
2019-06-07T06:59:50.452Z,27463.68
2019-06-07T07:00:58.914Z,26910.72
2019-06-07T07:01:50.566Z,27463.68
2019-06-07T07:03:39.574Z,27832.32
2019-06-07T07:04:09.705Z,28753.92
2019-06-07T07:04:53.537Z,29122.56
2019-06-07T07:05:54.237Z,29491.20
2019-06-07T07:06:53.381Z,31334.40
2019-06-07T07:07:52.995Z,28938.24
2019-06-07T07:08:53.428Z,29122.56
2019-06-07T07:09:58.945Z,28016.64
2019-06-07T07:10:54.989Z,27279.36
2019-06-07T07:12:10.248Z,27279.36
2019-06-07T07:12:54.528Z,23040.00
2019-06-07T07:13:57.060Z,23500.80
2019-06-07T07:14:56.212Z,22671.36
2019-06-07T07:15:58.367Z,23500.80
2019-06-07T07:16:56.844Z,24330.24
2019-06-07T07:18:07.793Z,28753.92
2019-06-07T07:18:57.444Z,28385.28
2019-06-07T07:19:59.207Z,28385.28
2019-06-07T07:20:59.765Z,28200.96
2019-06-07T07:22:00.292Z,27648.00
2019-06-07T07:23:00.666Z,30965.76
2019-06-07T07:24:20.435Z,31703.04
2019-06-07T07:25:00.391Z,31887.36
2019-06-07T07:26:01.808Z,31334.40
2019-06-07T07:27:02.253Z,30597.12
2019-06-07T07:28:02.650Z,31703.04
2019-06-07T07:29:03.001Z,33546.24
2019-06-07T07:30:35.637Z,35205.12
2019-06-07T07:31:03.098Z,35573.76
2019-06-07T07:32:04.768Z,35942.40
2019-06-07T07:33:06.613Z,34099.20
2019-06-07T07:34:33.992Z,34467.84
2019-06-07T07:35:05.957Z,35573.76
2019-06-07T07:36:28.195Z,35389.44
2019-06-07T07:37:07.420Z,34467.84
2019-06-07T07:38:09.018Z,34836.48
2019-06-07T07:39:08.498Z,34836.48
2019-06-07T07:40:55.578Z,36679.68
2019-06-07T07:41:15.436Z,37232.64
2019-06-07T07:42:20.895Z,37232.64
2019-06-07T07:43:10.616Z,37416.96
2019-06-07T07:44:12.152Z,37416.96
2019-06-07T07:45:12.574Z,36864.00
2019-06-07T07:46:29.204Z,36864.00
2019-06-07T07:47:13.033Z,36126.72
2019-06-07T07:48:18.077Z,34283.52
2019-06-07T07:49:14.064Z,33730.56
2019-06-07T07:50:15.673Z,34283.52
2019-06-07T07:51:16.191Z,35389.44
2019-06-07T07:52:17.061Z,35942.40
2019-06-07T07:53:17.877Z,35573.76
2019-06-07T07:54:18.314Z,35758.08
2019-06-07T07:55:18.803Z,36126.72
2019-06-07T07:56:18.330Z,36864.00
2019-06-07T07:57:19.766Z,37969.92
2019-06-07T07:58:20.218Z,38891.52
2019-06-07T07:59:20.783Z,39813.12
2019-06-07T08:01:20.928Z,41472.00
2019-06-07T08:02:22.458Z,41840.64
2019-06-07T08:03:22.142Z,42209.28
2019-06-07T08:03:30.711Z,42393.60
2019-06-07T08:05:13.045Z,42209.28
2019-06-07T08:05:42.349Z,41656.32
2019-06-07T08:06:32.711Z,41287.68
2019-06-07T08:07:34.288Z,40366.08
2019-06-07T08:08:33.751Z,39813.12
2019-06-07T08:09:35.272Z,39813.12
2019-06-07T08:10:35.850Z,39813.12
2019-06-07T08:11:36.353Z,40550.40
2019-06-07T08:12:55.458Z,41656.32
2019-06-07T08:13:37.421Z,43130.88
2019-06-07T08:14:37.332Z,44052.48
2019-06-07T08:15:38.839Z,44052.48
2019-06-07T08:16:39.627Z,41656.32
2019-06-07T08:17:40.236Z,40919.04
2019-06-07T08:18:40.762Z,39997.44
2019-06-07T08:19:41.336Z,40181.76
2019-06-07T08:21:01.512Z,41656.32
2019-06-07T08:21:41.636Z,43868.16
2019-06-07T08:22:43.219Z,45895.68
2019-06-07T08:23:43.623Z,47185.92
2019-06-07T08:24:44.251Z,47923.20
2019-06-07T08:25:44.798Z,47554.56
2019-06-07T08:27:06.856Z,47001.60
2019-06-07T08:27:45.046Z,46448.64
2019-06-07T08:28:48.423Z,46448.64
2019-06-07T08:30:03.738Z,46632.96
2019-06-07T08:30:50.676Z,47001.60
2019-06-07T08:31:48.242Z,47185.92
2019-06-07T08:32:52.638Z,47001.60
2019-06-07T08:33:49.887Z,46448.64
2019-06-07T08:34:52.433Z,45711.36
2019-06-07T08:36:19.460Z,45527.04
2019-06-07T08:36:51.657Z,45342.72
2019-06-07T08:38:52.899Z,46632.96
2019-06-07T08:39:52.814Z,47923.20
2019-06-07T08:40:56.868Z,49029.12
2019-06-07T08:42:02.106Z,49766.40
2019-06-07T08:43:11.345Z,50135.04
2019-06-07T08:43:56.484Z,50135.04
2019-06-07T08:45:01.264Z,49766.40
2019-06-07T08:46:01.156Z,49397.76
2019-06-07T08:47:15.975Z,49397.76
2019-06-07T08:47:58.102Z,49766.40
2019-06-07T08:49:02.203Z,50503.68
2019-06-07T08:50:04.375Z,51609.60
2019-06-07T08:51:06.526Z,52346.88
2019-06-07T08:52:09.967Z,52346.88
2019-06-07T08:53:05.104Z,51978.24
2019-06-07T08:54:18.710Z,51240.96
2019-06-07T08:55:04.752Z,50872.32
2019-06-07T08:56:06.984Z,50872.32
2019-06-07T08:57:20.094Z,51609.60
2019-06-07T08:58:08.203Z,52715.52
2019-06-07T08:59:10.805Z,53084.16
2019-06-07T09:00:15.960Z,53084.16
2019-06-07T09:01:07.847Z,53084.16
2019-06-07T09:02:14.687Z,52346.88
2019-06-07T09:03:07.155Z,51978.24
2019-06-07T09:04:09.956Z,51978.24
2019-06-07T09:05:11.684Z,51240.96
2019-06-07T09:06:08.935Z,51240.96
2019-06-07T09:07:18.834Z,51609.60
2019-06-07T09:08:28.723Z,51609.60
2019-06-07T09:09:07.531Z,52715.52
2019-06-07T09:10:14.411Z,53084.16
2019-06-07T09:11:11.177Z,54558.72
2019-06-07T09:12:11.320Z,54558.72
2019-06-07T09:13:11.659Z,54927.36
2019-06-07T09:14:10.176Z,54927.36
2019-06-07T09:15:21.285Z,54927.36
2019-06-07T09:16:11.763Z,54927.36
2019-06-07T09:17:13.068Z,53821.44
2019-06-07T09:19:13.772Z,53452.80
2019-06-07T09:20:35.075Z,53452.80
2019-06-07T09:21:14.664Z,52715.52
2019-06-07T09:22:16.303Z,52715.52
2019-06-07T09:23:17.269Z,53084.16
2019-06-07T09:24:15.530Z,53084.16
2019-06-07T09:25:21.141Z,53084.16
2019-06-07T09:26:18.874Z,53084.16
2019-06-07T09:27:17.190Z,53084.16
2019-06-07T09:28:20.468Z,53084.16
2019-06-07T09:29:18.762Z,53452.80
2019-06-07T09:30:20.230Z,53821.44
2019-06-07T09:31:20.721Z,54558.72
2019-06-07T09:32:21.304Z,54927.36
2019-06-07T09:32:29.867Z,54927.36
2019-06-07T09:33:31.748Z,55296.00
2019-06-07T09:34:32.362Z,55296.00
2019-06-07T09:35:33.293Z,55296.00
2019-06-07T09:36:33.969Z,55664.64
2019-06-07T09:38:16.122Z,55296.00
2019-06-07T09:38:33.913Z,55664.64
2019-06-07T09:39:35.351Z,56401.92
2019-06-07T09:40:35.732Z,56770.56
2019-06-07T09:41:47.512Z,57139.20
2019-06-07T09:42:35.743Z,57507.84
2019-06-07T09:44:36.621Z,57139.20
2019-06-07T09:45:38.153Z,56770.56
2019-06-07T09:46:38.817Z,56770.56
2019-06-07T09:47:37.933Z,56770.56
2019-06-07T09:49:38.897Z,57139.20
2019-06-07T09:50:40.379Z,57507.84
2019-06-07T09:51:41.003Z,58245.12
2019-06-07T09:52:57.765Z,58982.40
2019-06-07T09:53:41.030Z,60825.60
2019-06-07T09:55:06.071Z,61931.52
2019-06-07T09:55:42.498Z,62668.80
2019-06-07T09:56:43.891Z,62300.16
2019-06-07T09:57:44.789Z,61562.88
2019-06-07T09:58:51.826Z,60456.96
2019-06-07T09:59:44.823Z,59351.04
2019-06-07T10:00:46.236Z,58245.12
2019-06-07T10:01:46.740Z,57876.48
2019-06-07T10:02:47.224Z,58613.76
2019-06-07T10:03:46.835Z,57139.20
2019-06-07T10:04:48.659Z,57139.20
2019-06-07T10:05:49.477Z,58245.12
2019-06-07T10:06:49.979Z,60456.96
2019-06-07T10:08:02.495Z,61194.24
2019-06-07T10:10:12.611Z,62668.80
2019-06-07T10:10:51.239Z,62668.80
2019-06-07T10:11:52.952Z,63037.44
2019-06-07T10:12:52.955Z,63037.44
2019-06-07T10:13:53.502Z,62668.80
2019-06-07T10:14:54.018Z,61931.52
2019-06-07T10:15:54.868Z,61194.24
2019-06-07T10:16:55.364Z,60825.60
2019-06-07T10:17:55.783Z,60825.60
2019-06-07T10:18:56.030Z,60456.96
2019-06-07T10:19:56.657Z,60825.60
2019-06-07T10:20:57.194Z,61194.24
2019-06-07T10:21:59.123Z,61562.88
2019-06-07T10:22:57.508Z,61931.52
2019-06-07T10:23:59.296Z,62300.16
2019-06-07T10:24:59.695Z,62668.80
2019-06-07T10:25:59.662Z,63774.72
2019-06-07T10:27:01.721Z,64143.36
2019-06-07T10:28:01.860Z,64512.00
2019-06-07T10:29:01.909Z,64143.36
2019-06-07T10:30:02.721Z,64143.36
2019-06-07T10:31:04.503Z,63406.08
2019-06-07T10:32:04.493Z,63406.08
2019-06-07T10:33:05.049Z,63774.72
2019-06-07T10:33:13.706Z,63774.72
2019-06-07T10:34:14.737Z,63774.72
2019-06-07T10:35:16.521Z,63406.08
2019-06-07T10:36:14.868Z,63037.44
2019-06-07T10:37:16.380Z,63037.44
2019-06-07T10:38:16.923Z,62668.80
2019-06-07T10:39:17.643Z,62300.16
2019-06-07T10:40:18.275Z,62668.80
2019-06-07T10:41:18.733Z,63037.44
2019-06-07T10:42:19.619Z,64143.36
2019-06-07T10:43:20.148Z,64143.36
2019-06-07T10:44:19.874Z,64880.64
2019-06-07T10:45:21.302Z,64880.64
2019-06-07T10:46:21.938Z,65249.28
2019-06-07T10:47:22.736Z,64880.64
2019-06-07T10:48:25.096Z,65249.28
2019-06-07T10:49:22.836Z,64880.64
2019-06-07T10:50:24.372Z,65249.28
2019-06-07T10:51:24.917Z,64880.64
2019-06-07T10:52:25.351Z,65249.28
2019-06-07T10:53:26.084Z,65249.28
2019-06-07T10:54:30.530Z,65617.92
2019-06-07T10:55:26.475Z,65986.56
2019-06-07T10:56:27.949Z,66355.20
2019-06-07T10:57:28.492Z,59351.04
2019-06-07T10:58:28.961Z,70410.24
2019-06-07T10:59:29.720Z,72990.72
2019-06-07T11:00:30.197Z,73359.36
2019-06-07T11:01:30.751Z,75939.84
2019-06-07T11:02:30.421Z,65617.92
2019-06-07T11:03:31.998Z,31887.36
2019-06-07T11:04:32.517Z,57507.84
2019-06-07T11:05:32.413Z,18155.52
2019-06-07T11:06:34.140Z,18800.64
2019-06-07T11:07:34.849Z,17694.72
2019-06-07T11:08:35.485Z,17418.24
2019-06-07T11:09:35.976Z,17418.24
2019-06-07T11:10:36.469Z,17694.72
2019-06-07T11:11:37.038Z,17233.92
2019-06-07T11:12:37.457Z,15206.40
2019-06-07T11:13:38.009Z,14008.32
2019-06-07T11:14:38.605Z,11980.80
2019-06-07T11:15:39.079Z,10552.32
2019-06-07T11:16:38.677Z,9169.92
2019-06-07T11:17:39.901Z,8663.04
2019-06-07T11:18:40.379Z,8939.52
2019-06-07T11:19:41.012Z,9446.40
2019-06-07T11:20:41.516Z,10045.44
2019-06-07T11:21:42.019Z,10045.44
2019-06-07T11:22:41.512Z,8616.96
2019-06-07T11:22:50.588Z,8524.80
2019-06-07T11:23:52.277Z,8524.80
2019-06-07T11:24:51.682Z,8663.04
2019-06-07T11:25:52.073Z,7833.60
2019-06-07T11:26:53.914Z,7188.48
2019-06-07T11:27:54.500Z,7096.32
2019-06-07T11:28:54.521Z,6773.76
2019-06-07T11:29:55.325Z,6359.04
2019-06-07T11:30:56.134Z,6128.64
2019-06-07T11:31:56.648Z,5990.40
2019-06-07T11:32:57.158Z,5829.12
2019-06-07T11:33:57.697Z,5760.00
2019-06-07T11:34:58.225Z,5667.84
2019-06-07T11:35:58.960Z,5667.84
2019-06-07T11:36:59.728Z,5990.40
2019-06-07T11:38:00.445Z,6266.88
2019-06-07T11:39:01.039Z,6266.88
2019-06-07T11:40:01.829Z,6128.64
2019-06-07T11:41:00.992Z,6174.72
2019-06-07T11:42:02.494Z,6451.20
2019-06-07T11:43:03.136Z,6773.76
2019-06-07T11:44:02.533Z,7188.48
2019-06-07T11:45:02.951Z,7833.60
2019-06-07T11:46:04.496Z,8893.44
2019-06-07T11:47:06.387Z,10183.68
2019-06-07T11:48:04.963Z,11566.08
2019-06-07T11:49:06.477Z,12994.56
2019-06-07T11:50:07.264Z,14192.64
2019-06-07T11:51:06.822Z,14837.76
2019-06-07T11:52:07.395Z,14561.28
2019-06-07T11:53:08.589Z,14376.96
2019-06-07T11:54:09.630Z,13731.84
2019-06-07T11:55:09.838Z,12349.44
2019-06-07T11:56:10.339Z,11197.44
2019-06-07T11:57:10.920Z,9999.36
2019-06-07T11:58:16.119Z,9216.00
2019-06-07T11:59:11.751Z,8709.12
2019-06-07T12:00:14.144Z,8202.24
2019-06-07T12:01:14.962Z,7833.60
2019-06-07T12:02:13.760Z,7557.12
2019-06-07T12:03:15.960Z,7326.72
2019-06-07T12:04:31.054Z,7280.64
2019-06-07T12:05:18.391Z,8110.08
2019-06-07T12:06:16.495Z,10321.92
2019-06-07T12:07:17.725Z,13455.36
2019-06-07T12:08:18.224Z,16680.96
2019-06-07T12:09:18.826Z,19261.44
2019-06-07T12:10:22.678Z,21381.12
2019-06-07T12:11:18.969Z,22671.36
2019-06-07T12:12:20.775Z,22118.40
2019-06-07T12:13:20.493Z,20551.68
2019-06-07T12:14:21.970Z,18984.96
2019-06-07T12:15:22.687Z,17971.20
2019-06-07T12:16:22.377Z,17233.92
2019-06-07T12:17:23.788Z,16404.48
2019-06-07T12:18:24.227Z,15482.88